Time;durP1;ratioP1;P1;durP2;ratioP2;P2;SDS_P1;SDS_P2;PMS_P1;PMS_P2;Temp;Humidity;BMP_temperature;BMP_pressure;BME280_temperature;BME280_humidity;BME280_pressure;Samples;Min_cycle;Max_cycle;Signal;HPM_P1;HPM_P2
2021/06/10 00:02:52;;;;;;;0.20;0.20;;;;;;;15.87;88.42;98491.59;4997428;28;20048;-92
2021/06/10 00:05:21;;;;;;;0.13;0.13;;;;;;;15.60;88.40;98419.44;5022996;28;20093;-93
2021/06/10 00:07:48;;;;;;;1.48;0.50;;;;;;;15.89;88.33;98486.34;5028539;28;20018;-95
2021/06/10 00:12:53;;;;;;;1.05;0.30;;;;;;;15.45;90.31;98450.75;5048172;28;20083;-93
2021/06/10 00:16:04;;;;;;;1.10;0.95;;;;;;;15.44;90.69;98460.34;5035965;28;20044;-94
2021/06/10 00:21:19;;;;;;;1.17;0.40;;;;;;;15.55;91.41;98470.22;5252011;22;20057;-95
2021/06/10 00:23:45;;;;;;;0.32;0.32;;;;;;;15.33;91.08;98435.06;5049546;28;20091;-93
2021/06/10 00:26:10;;;;;;;0.60;0.60;;;;;;;15.35;91.51;98440.94;5043408;28;20012;-94
2021/06/10 00:28:36;;;;;;;0.30;0.30;;;;;;;15.66;91.59;98504.63;5046796;28;20058;-93
2021/06/10 00:31:11;;;;;;;0.28;0.28;;;;;;;15.13;91.71;98432.09;5030171;28;20489;-94
2021/06/10 00:33:44;;;;;;;0.20;0.20;;;;;;;15.19;92.46;98432.97;5043128;28;20025;-94
2021/06/10 00:36:09;;;;;;;0.70;0.63;;;;;;;14.96;93.00;98434.53;5024985;28;20532;-94
2021/06/10 00:38:35;;;;;;;0.52;0.52;;;;;;;14.91;94.14;98443.53;5033418;28;20025;-93
2021/06/10 00:41:03;;;;;;;0.28;0.28;;;;;;;15.48;93.26;98502.72;5034101;28;20029;-92
2021/06/10 00:43:30;;;;;;;0.50;0.50;;;;;;;15.51;92.55;98461.22;5033722;28;20033;-94
2021/06/10 00:45:56;;;;;;;0.25;0.25;;;;;;;15.19;91.54;98426.69;5033684;28;20086;-93
2021/06/10 00:48:22;;;;;;;0.45;0.45;;;;;;;15.25;91.52;98428.31;5032331;28;20167;-93
2021/06/10 00:50:51;;;;;;;1.45;1.35;;;;;;;15.50;91.37;98460.44;5035246;28;20025;-94
2021/06/10 00:53:25;;;;;;;0.20;0.20;;;;;;;15.33;91.19;98429.50;5038361;28;20048;-94
2021/06/10 01:01:35;;;;;;;0.90;0.55;;;;;;;15.21;91.04;98422.16;5283133;23;20062;-92
2021/06/10 01:04:19;;;;;;;0.30;0.30;;;;;;;15.26;90.64;98424.28;5007576;28;20026;-95
2021/06/10 01:09:47;;;;;;;0.65;0.65;;;;;;;15.22;90.62;98406.22;5069168;28;20041;-94
2021/06/10 01:12:53;;;;;;;0.50;0.50;;;;;;;15.97;91.28;98489.53;5045736;28;20033;-91
2021/06/10 01:15:26;;;;;;;1.27;0.85;;;;;;;15.89;90.96;98483.53;4998981;28;20037;-93
2021/06/10 01:31:26;;;;;;;1.08;1.05;;;;;;;14.72;92.17;98410.69;5593716;23;20079;-93
2021/06/10 01:53:14;;;;;;;2.38;0.75;;;;;;;14.68;99.29;98501.88;2558274;23;20298;-88
2021/06/10 01:55:40;;;;;;;0.73;0.73;;;;;;;14.10;99.53;98414.03;4942003;29;20142;-89
2021/06/10 01:58:09;;;;;;;0.88;0.50;;;;;;;14.17;98.87;98402.56;4948747;29;20051;-89
2021/06/10 02:00:36;;;;;;;0.20;0.20;;;;;;;14.32;98.18;98431.25;4951970;29;20099;-89
2021/06/10 02:03:21;;;;;;;0.30;0.30;;;;;;;14.77;98.56;98469.22;4954807;29;20023;-88
2021/06/10 02:05:51;;;;;;;1.33;1.20;;;;;;;14.26;98.53;98416.44;4956386;29;20039;-89
2021/06/10 02:10:57;;;;;;;0.47;0.47;;;;;;;14.34;98.13;98422.44;5375724;23;20042;-92
2021/06/10 02:18:56;;;;;;;0.35;0.35;;;;;;;14.23;99.72;98417.34;5118173;23;20066;-93
2021/06/10 02:21:22;;;;;;;1.27;1.17;;;;;;;14.19;100.00;98425.88;5017391;28;20030;-93
2021/06/10 02:23:49;;;;;;;0.77;0.77;;;;;;;14.18;100.00;98424.31;5016135;28;20111;-94
2021/06/10 02:26:16;;;;;;;15.40;1.40;;;;;;;14.20;99.21;98402.41;5014010;28;20034;-93
2021/06/10 02:28:43;;;;;;;0.85;0.85;;;;;;;14.15;98.46;98418.94;5007989;28;20037;-93
2021/06/10 02:31:12;;;;;;;0.55;0.55;;;;;;;14.47;100.00;98451.59;5037677;28;20029;-93
2021/06/10 02:36:23;;;;;;;1.08;0.65;;;;;;;14.12;99.22;98406.75;5248640;23;20046;-93
2021/06/10 02:38:56;;;;;;;0.68;0.68;;;;;;;14.10;99.81;98411.25;5033922;28;20064;-93
2021/06/10 02:54:29;;;;;;;0.20;0.20;;;;;;;13.62;98.51;98463.75;5660623;23;20066;-88
2021/06/10 02:57:00;;;;;;;0.45;0.45;;;;;;;13.77;98.67;98484.09;5005994;28;20043;-89
2021/06/10 03:17:33;;;;;;;0.65;0.65;;;;;;;14.06;100.00;98422.50;5294018;23;20056;-92
2021/06/10 03:19:59;;;;;;;0.60;0.60;;;;;;;14.42;97.77;98421.66;4996150;28;20060;-92
2021/06/10 03:22:26;;;;;;;1.40;1.27;;;;;;;14.79;95.82;98407.59;5009968;28;20030;-91
2021/06/10 03:24:59;;;;;;;0.98;0.95;;;;;;;14.95;93.70;98421.06;5010865;28;20033;-92
2021/06/10 03:27:30;;;;;;;1.35;1.13;;;;;;;15.26;92.53;98429.06;5010750;28;20014;-93
2021/06/10 03:29:56;;;;;;;0.90;0.80;;;;;;;16.27;91.25;98510.59;5011956;28;20025;-94
2021/06/10 03:32:22;;;;;;;1.45;1.35;;;;;;;15.78;89.30;98411.69;5009433;28;20022;-92
2021/06/10 03:34:49;;;;;;;0.68;0.68;;;;;;;16.02;87.09;98410.81;5010095;28;20034;-92
2021/06/10 03:37:15;;;;;;;0.85;0.85;;;;;;;17.00;85.54;98465.91;5008252;28;20088;-91
2021/06/10 03:39:42;;;;;;;0.68;0.68;;;;;;;16.98;82.74;98426.56;5006268;28;20022;-93
2021/06/10 03:42:09;;;;;;;3.25;0.65;;;;;;;17.48;79.68;98424.41;5006536;28;20026;-91
2021/06/10 03:44:35;;;;;;;0.75;0.60;;;;;;;17.68;78.80;98409.69;5005942;28;20136;-92
2021/06/10 03:47:01;;;;;;;0.25;0.25;;;;;;;18.29;76.44;98406.69;5003635;28;20021;-93
2021/06/10 03:49:27;;;;;;;0.50;0.50;;;;;;;19.12;73.85;98473.72;5002316;28;20029;-90
2021/06/10 03:51:54;;;;;;;0.60;0.60;;;;;;;19.41;71.69;98461.44;4999545;28;20030;-91
2021/06/10 03:54:20;;;;;;;22.17;1.13;;;;;;;19.98;69.83;98449.91;5017533;28;20030;-91
2021/06/10 03:56:46;;;;;;;0.45;0.45;;;;;;;20.55;66.92;98410.22;5016449;28;20098;-93
2021/06/10 03:59:13;;;;;;;0.95;0.95;;;;;;;21.09;65.39;98437.97;4998781;28;20478;-92
2021/06/10 04:01:39;;;;;;;1.60;0.80;;;;;;;21.60;65.48;98504.00;4999674;28;20034;-92
2021/06/10 04:04:05;;;;;;;0.90;0.52;;;;;;;21.16;64.06;98417.78;4997986;28;20113;-91
2021/06/10 04:06:35;;;;;;;0.47;0.47;;;;;;;21.80;62.50;98418.53;4997987;28;20030;-91
2021/06/10 04:09:03;;;;;;;0.20;0.20;;;;;;;22.79;60.60;98461.34;5013771;28;20033;-91
2021/06/10 04:11:28;;;;;;;0.30;0.30;;;;;;;23.00;58.97;98419.41;4997742;28;20029;-91
2021/06/10 04:13:54;;;;;;;0.73;0.73;;;;;;;23.64;57.43;98470.50;4999873;28;20273;-88
2021/06/10 04:16:19;;;;;;;0.50;0.50;;;;;;;23.98;56.17;98443.38;4999696;28;20135;-89
2021/06/10 04:18:45;;;;;;;1.00;0.80;;;;;;;24.18;56.50;98495.69;5018605;28;20030;-90
2021/06/10 04:21:11;;;;;;;0.45;0.43;;;;;;;24.89;53.97;98493.13;5001057;28;20491;-90
2021/06/10 04:23:37;;;;;;;0.40;0.40;;;;;;;24.72;54.76;98492.59;5016917;28;20030;-89
2021/06/10 04:26:02;;;;;;;5.40;1.38;;;;;;;25.34;52.97;98478.19;5000625;28;20042;-91
2021/06/10 04:28:28;;;;;;;1.45;0.65;;;;;;;25.58;52.21;98463.84;5001036;28;20121;-89
2021/06/10 04:30:54;;;;;;;0.20;0.20;;;;;;;26.27;50.42;98476.81;5000452;28;20092;-92
2021/06/10 04:33:19;;;;;;;1.58;0.65;;;;;;;26.14;49.54;98457.75;4999720;28;20022;-90
2021/06/10 04:35:45;;;;;;;0.30;0.22;;;;;;;26.63;48.49;98477.75;5000058;28;20034;-91
2021/06/10 04:38:13;;;;;;;0.40;0.40;;;;;;;26.59;48.84;98440.47;5020143;28;20056;-89
2021/06/10 04:40:39;;;;;;;0.63;0.63;;;;;;;27.23;47.11;98490.94;5000594;28;20080;-92
2021/06/10 04:43:04;;;;;;;0.50;0.50;;;;;;;27.66;45.97;98452.66;5000669;28;20120;-89
2021/06/10 04:45:30;;;;;;;0.40;0.40;;;;;;;27.92;45.41;98492.13;5006303;28;20088;-92
2021/06/10 04:47:56;;;;;;;0.65;0.43;;;;;;;28.82;43.79;98473.09;5005346;28;20029;-91
2021/06/10 04:50:29;;;;;;;0.52;0.52;;;;;;;30.00;41.02;98501.84;5000388;28;20041;-91
2021/06/10 04:52:55;;;;;;;0.40;0.40;;;;;;;29.62;40.83;98427.88;5003013;28;20491;-84
2021/06/10 04:55:21;;;;;;;0.30;0.30;;;;;;;29.82;40.54;98424.00;5015483;28;20101;-84
2021/06/10 04:57:47;;;;;;;0.95;0.68;;;;;;;30.51;39.68;98493.63;4998001;28;20037;-84
2021/06/10 05:00:14;;;;;;;0.20;0.20;;;;;;;30.11;39.41;98467.97;4998347;28;20080;-84
2021/06/10 05:02:39;;;;;;;1.00;0.77;;;;;;;30.72;38.99;98474.09;5014572;28;20037;-85
2021/06/10 05:05:06;;;;;;;0.38;0.38;;;;;;;31.51;36.69;98466.59;4997802;28;20030;-84
2021/06/10 05:07:32;;;;;;;1.23;0.45;;;;;;;30.93;38.43;98472.97;4997853;28;20033;-90
2021/06/10 05:09:57;;;;;;;0.40;0.40;;;;;;;31.89;36.59;98488.28;4998711;28;20022;-89
2021/06/10 05:12:23;;;;;;;0.73;0.50;;;;;;;32.50;35.64;98493.22;4998215;28;20417;-88
2021/06/10 05:14:48;;;;;;;1.13;0.88;;;;;;;31.84;35.54;98487.19;4997975;28;20087;-90
2021/06/10 05:17:14;;;;;;;0.20;0.20;;;;;;;31.89;36.02;98493.97;4997981;28;20057;-89
2021/06/10 05:19:39;;;;;;;0.45;0.45;;;;;;;32.40;34.99;98470.31;4997952;28;20477;-89
2021/06/10 05:22:05;;;;;;;0.30;0.30;;;;;;;32.40;34.83;98501.78;4998121;28;20632;-86
2021/06/10 05:24:30;;;;;;;0.40;0.40;;;;;;;32.37;35.31;98496.50;4997542;28;20460;-90
2021/06/10 05:26:56;;;;;;;0.35;0.35;;;;;;;32.11;35.83;98455.81;4997630;28;20026;-90
2021/06/10 05:29:21;;;;;;;0.45;0.45;;;;;;;32.62;34.82;98491.34;4997750;28;20080;-84
2021/06/10 05:31:47;;;;;;;0.20;0.20;;;;;;;33.27;33.32;98482.19;4997536;28;20053;-88
2021/06/10 05:34:13;;;;;;;0.25;0.25;;;;;;;34.33;31.95;98505.94;4997763;28;20469;-88
2021/06/10 05:36:38;;;;;;;0.45;0.45;;;;;;;35.23;30.46;98508.09;4997625;28;20042;-88
2021/06/10 05:39:05;;;;;;;0.22;0.22;;;;;;;35.15;30.40;98498.13;4999259;28;20033;-91
2021/06/10 05:41:30;;;;;;;0.22;0.20;;;;;;;34.45;30.84;98497.47;5016215;28;20069;-89
2021/06/10 05:43:59;;;;;;;0.95;0.65;;;;;;;35.09;30.41;98501.34;4997607;28;20053;-87
2021/06/10 05:49:53;;;;;;;0.65;0.57;;;;;;;35.75;29.14;98487.22;5015074;28;20061;-87
2021/06/10 05:52:18;;;;;;;0.20;0.20;;;;;;;34.86;29.84;98506.88;4998104;28;20113;-92
2021/06/10 05:54:44;;;;;;;0.60;0.30;;;;;;;35.28;30.29;98507.00;4997498;28;20505;-88
2021/06/10 05:57:11;;;;;;;1.10;1.00;;;;;;;34.52;31.18;98497.31;4997475;28;20120;-88
2021/06/10 05:59:36;;;;;;;0.80;0.45;;;;;;;35.06;30.60;98488.22;4997603;28;20043;-89
2021/06/10 06:02:02;;;;;;;0.40;0.32;;;;;;;34.93;30.46;98508.81;4997647;28;20025;-91
2021/06/10 06:04:27;;;;;;;0.32;0.32;;;;;;;35.84;29.59;98503.66;4998048;28;20041;-91
2021/06/10 06:06:53;;;;;;;0.20;0.20;;;;;;;35.55;29.76;98482.97;4997724;28;20041;-87
2021/06/10 06:09:18;;;;;;;0.43;0.43;;;;;;;35.40;29.23;98486.97;4997612;28;20033;-89
2021/06/10 06:11:44;;;;;;;0.63;0.30;;;;;;;36.07;28.88;98503.00;5014930;28;20030;-91
2021/06/10 06:14:14;;;;;;;0.20;0.20;;;;;;;35.64;28.54;98487.88;4997413;28;20121;-88
2021/06/10 06:16:42;;;;;;;1.02;0.50;;;;;;;35.42;29.84;98518.75;4996822;28;20073;-91
2021/06/10 06:19:11;;;;;;;0.52;0.43;;;;;;;35.74;29.47;98503.72;4995592;28;20128;-92
2021/06/10 06:21:37;;;;;;;0.30;0.30;;;;;;;37.44;27.49;98503.13;4995100;28;20501;-91
2021/06/10 06:24:04;;;;;;;0.52;0.20;;;;;;;37.88;26.65;98521.63;5012386;28;20034;-90
2021/06/10 06:26:29;;;;;;;0.45;0.45;;;;;;;38.09;25.08;98509.91;4995441;28;20464;-90
2021/06/10 06:28:58;;;;;;;7.20;0.98;;;;;;;38.35;25.84;98507.00;4996429;28;20065;-90
2021/06/10 06:31:25;;;;;;;0.50;0.35;;;;;;;38.11;26.00;98506.38;4997073;28;20034;-90
2021/06/10 06:33:51;;;;;;;0.40;0.17;;;;;;;39.24;25.16;98512.75;4996776;28;20029;-90
2021/06/10 06:36:17;;;;;;;1.05;0.70;;;;;;;40.13;24.29;98502.91;5013673;28;20515;-91
2021/06/10 06:38:43;;;;;;;0.57;0.52;;;;;;;40.70;23.41;98505.69;5012848;28;20034;-90
2021/06/10 06:41:09;;;;;;;0.33;0.33;;;;;;;41.00;22.79;98504.19;4997013;28;20112;-89
2021/06/10 06:43:34;;;;;;;0.10;0.10;;;;;;;39.91;22.91;98495.25;4997199;28;20034;-89
2021/06/10 06:46:00;;;;;;;0.52;0.22;;;;;;;38.64;24.76;98487.78;5014101;28;20018;-88
2021/06/10 06:48:28;;;;;;;0.20;0.20;;;;;;;38.10;26.73;98511.41;4996662;28;20053;-89
2021/06/10 06:50:53;;;;;;;0.45;0.38;;;;;;;38.49;25.93;98502.84;4996504;28;20124;-89
2021/06/10 06:53:19;;;;;;;0.10;0.10;;;;;;;40.20;23.40;98496.03;4996556;28;20080;-89
2021/06/10 06:55:44;;;;;;;0.43;0.35;;;;;;;40.72;22.50;98490.53;5014232;28;20026;-90
2021/06/10 06:58:10;;;;;;;0.00;0.00;;;;;;;41.42;22.69;98517.00;4996404;28;20030;-91
2021/06/10 07:00:36;;;;;;;0.30;0.30;;;;;;;40.81;22.42;98496.09;4996474;28;20026;-89
2021/06/10 07:03:01;;;;;;;0.77;0.77;;;;;;;39.71;23.38;98518.84;4996307;28;20079;-90
2021/06/10 07:05:27;;;;;;;0.28;0.28;;;;;;;39.93;22.78;98516.34;4996439;28;20026;-90
2021/06/10 07:07:52;;;;;;;0.40;0.40;;;;;;;40.05;23.99;98522.00;4996126;28;20034;-90
2021/06/10 07:13:02;;;;;;;0.10;0.10;;;;;;;41.37;21.10;98497.16;5014070;28;20040;-90
2021/06/10 07:15:27;;;;;;;0.47;0.40;;;;;;;40.07;22.83;98505.50;4996099;28;20034;-89
2021/06/10 07:17:53;;;;;;;0.80;0.45;;;;;;;38.35;25.46;98473.13;4995953;28;20053;-90
2021/06/10 07:20:19;;;;;;;0.82;0.45;;;;;;;39.50;24.33;98492.41;4996198;28;20396;-90
2021/06/10 07:22:44;;;;;;;4.00;0.40;;;;;;;40.19;23.31;98499.56;5013577;28;20570;-89
2021/06/10 07:25:10;;;;;;;0.15;0.15;;;;;;;37.37;25.63;98503.41;4996080;28;20498;-89
2021/06/10 07:27:37;;;;;;;12.35;1.92;;;;;;;40.06;23.01;98495.31;4996333;28;20030;-89
2021/06/10 07:30:05;;;;;;;1.63;1.45;;;;;;;41.11;21.86;98472.81;4996117;28;20060;-89
2021/06/10 07:32:31;;;;;;;0.17;0.17;;;;;;;41.30;22.11;98481.66;4996227;28;20029;-89
2021/06/10 07:34:56;;;;;;;0.30;0.30;;;;;;;40.23;22.47;98503.41;4996352;28;20030;-90
2021/06/10 07:37:22;;;;;;;0.37;0.37;;;;;;;40.78;22.52;98479.25;5013458;28;20026;-90
2021/06/10 07:39:57;;;;;;;;;;;;;;;;;;;;;
2021/06/10 07:42:23;;;;;;;0.30;0.30;;;;;;;40.61;22.39;98477.72;5013782;28;20030;-90
2021/06/10 07:44:48;;;;;;;0.30;0.30;;;;;;;42.68;20.54;98507.06;4996157;28;20458;-88
2021/06/10 07:47:14;;;;;;;0.20;0.20;;;;;;;40.65;20.15;98493.16;4998623;28;20038;-88
2021/06/10 07:49:41;;;;;;;0.35;0.35;;;;;;;39.80;21.19;98508.44;4999979;28;20026;-92
2021/06/10 07:52:06;;;;;;;;;;;;;;;39.85;22.25;98513.03;5017983;28;20030;-91
2021/06/10 07:54:32;;;;;;;0.43;0.43;;;;;;;37.90;25.49;98515.97;5000076;28;19916;-89
2021/06/10 07:56:58;;;;;;;0.13;0.13;;;;;;;36.55;27.15;98491.78;5017880;28;20034;-91
2021/06/10 07:59:25;;;;;;;0.25;0.20;;;;;;;35.62;26.42;98497.13;4999963;28;20026;-90
2021/06/10 08:01:52;;;;;;;0.55;0.55;;;;;;;35.00;29.14;98499.28;5017609;28;20022;-91
2021/06/10 08:04:18;;;;;;;0.57;0.57;;;;;;;34.02;31.11;98497.19;5016160;28;20029;-92
2021/06/10 08:06:43;;;;;;;0.30;0.30;;;;;;;33.26;31.53;98474.94;4999858;28;20095;-92
2021/06/10 08:09:09;;;;;;;0.40;0.40;;;;;;;33.07;32.66;98493.53;5000314;28;20037;-93
2021/06/10 08:11:35;;;;;;;0.65;0.43;;;;;;;32.09;33.98;98489.19;5017048;28;20034;-92
2021/06/10 08:14:01;;;;;;;0.30;0.30;;;;;;;30.66;35.79;98493.53;4999804;28;20145;-93
2021/06/10 08:16:26;;;;;;;0.73;0.73;;;;;;;29.47;37.21;98469.31;5000413;28;20061;-93
2021/06/10 08:18:52;;;;;;;0.22;0.22;;;;;;;28.90;38.35;98474.63;5000462;28;20125;-93
2021/06/10 08:21:17;;;;;;;0.10;0.10;;;;;;;28.95;40.60;98479.38;5018440;28;20080;-93
2021/06/10 08:23:42;;;;;;;1.15;0.65;;;;;;;29.33;41.25;98495.69;5002658;28;20451;-93
2021/06/10 08:26:08;;;;;;;0.43;0.43;;;;;;;29.45;38.78;98482.59;5000938;28;20041;-90
2021/06/10 08:28:52;;;;;;;0.40;0.40;;;;;;;28.79;37.98;98488.47;5017649;28;20029;-90
2021/06/10 08:31:17;;;;;;;6.43;1.17;;;;;;;28.21;39.53;98472.97;4992840;28;20062;-90
2021/06/10 08:33:43;;;;;;;0.10;0.10;;;;;;;27.99;38.95;98454.50;4999409;28;20552;-90
2021/06/10 08:36:09;;;;;;;0.30;0.30;;;;;;;27.69;39.77;98489.19;4999266;28;20076;-91
2021/06/10 08:38:36;;;;;;;0.25;0.25;;;;;;;27.90;40.78;98472.06;4999258;28;20473;-91
2021/06/10 08:41:03;;;;;;;0.20;0.20;;;;;;;27.95;38.37;98474.00;5016329;28;20029;-89
2021/06/10 08:43:52;;;;;;;0.20;0.20;;;;;;;28.36;38.03;98470.16;5015346;28;20103;-89
2021/06/10 08:46:21;;;;;;;0.30;0.30;;;;;;;28.75;39.24;98474.63;4989369;28;20620;-92
2021/06/10 08:48:49;;;;;;;0.40;0.40;;;;;;;29.11;35.59;98489.44;4998780;28;20452;-89
2021/06/10 08:51:15;;;;;;;0.90;0.30;;;;;;;29.49;35.66;98477.25;4999134;28;20496;-88
2021/06/10 08:53:41;;;;;;;0.50;0.32;;;;;;;28.57;36.57;98448.03;4998654;28;20030;-88
2021/06/10 08:56:07;;;;;;;0.30;0.15;;;;;;;28.96;36.77;98478.03;4999091;28;20041;-89
2021/06/10 08:58:33;;;;;;;0.40;0.40;;;;;;;28.85;36.33;98471.97;4997901;28;20036;-89
2021/06/10 09:01:01;;;;;;;0.25;0.25;;;;;;;27.82;35.88;98455.00;5015971;28;20103;-90
2021/06/10 09:03:32;;;;;;;0.22;0.20;;;;;;;27.24;35.27;98430.06;4998666;28;20026;-90
2021/06/10 09:06:08;;;;;;;0.55;0.30;;;;;;;27.68;36.00;98481.97;4998250;28;20051;-90
2021/06/10 09:08:39;;;;;;;0.55;0.55;;;;;;;27.96;35.52;98458.47;5015897;28;20025;-90
2021/06/10 09:11:12;;;;;;;0.20;0.20;;;;;;;28.54;33.54;98491.03;4998669;28;20493;-90
2021/06/10 09:13:48;;;;;;;0.28;0.15;;;;;;;29.30;34.57;98494.72;4998552;28;20124;-89
2021/06/10 09:16:25;;;;;;;0.50;0.50;;;;;;;29.91;32.53;98491.78;4998336;28;20030;-88
2021/06/10 09:19:01;;;;;;;0.40;0.40;;;;;;;30.54;32.25;98461.09;4998810;28;20192;-88
2021/06/10 09:21:28;;;;;;;0.30;0.30;;;;;;;29.83;33.26;98449.06;4998161;28;20030;-90
2021/06/10 09:23:54;;;;;;;0.10;0.10;;;;;;;29.14;34.91;98496.81;4998388;28;20026;-90
2021/06/10 09:26:20;;;;;;;0.38;0.38;;;;;;;26.99;39.83;98514.78;4998543;28;20026;-88
2021/06/10 09:28:50;;;;;;;0.68;0.50;;;;;;;25.44;45.40;98525.28;4998530;28;20057;-90
2021/06/10 09:31:37;;;;;;;0.55;0.55;;;;;;;24.85;47.04;98526.56;4998676;28;20030;-90
2021/06/10 09:34:09;;;;;;;0.30;0.30;;;;;;;24.22;46.61;98482.84;4998650;28;20061;-91
2021/06/10 09:36:50;;;;;;;0.55;0.55;;;;;;;24.11;48.37;98525.28;4998145;28;20018;-87
2021/06/10 09:39:23;;;;;;;0.20;0.20;;;;;;;23.70;49.81;98505.03;4997838;28;20029;-87
2021/06/10 09:42:08;;;;;;;0.55;0.55;;;;;;;24.02;47.95;98493.88;5015229;28;20492;-87
2021/06/10 09:44:41;;;;;;;0.90;0.63;;;;;;;24.51;47.74;98525.56;4997912;28;20060;-86
2021/06/10 09:47:07;;;;;;;0.35;0.30;;;;;;;24.74;46.57;98527.50;4997682;28;20101;-87
2021/06/10 09:49:32;;;;;;;0.20;0.20;;;;;;;24.98;46.85;98515.31;5014224;28;20406;-86
2021/06/10 09:52:00;;;;;;;0.20;0.20;;;;;;;25.23;46.16;98513.09;5015032;28;20036;-88
2021/06/10 09:54:42;;;;;;;;;;;;;;;25.29;47.51;98536.38;4997749;28;20046;-88
2021/06/10 09:57:30;;;;;;;0.45;0.40;;;;;;;24.47;46.79;98508.94;4997636;28;19910;-86
2021/06/10 09:59:55;;;;;;;0.52;0.52;;;;;;;24.55;44.99;98537.31;5014378;28;20177;-87
2021/06/10 10:02:25;;;;;;;0.10;0.10;;;;;;;24.09;46.02;98539.19;4997371;28;20121;-87
2021/06/10 10:04:58;;;;;;;0.40;0.40;;;;;;;24.31;47.72;98572.03;5014083;28;20030;-86
2021/06/10 10:07:26;;;;;;;0.20;0.20;;;;;;;24.16;47.31;98571.72;4997373;28;20040;-86
2021/06/10 10:09:52;;;;;;;0.40;0.40;;;;;;;24.15;47.42;98556.81;5012618;28;20124;-88
2021/06/10 10:12:19;;;;;;;0.20;0.20;;;;;;;24.27;46.99;98546.94;4997507;28;20127;-88
2021/06/10 10:14:45;;;;;;;0.37;0.20;;;;;;;24.64;46.73;98565.16;5014577;28;20042;-87
2021/06/10 10:17:11;;;;;;;0.60;0.60;;;;;;;24.56;47.78;98570.66;4997417;28;20076;-87
2021/06/10 10:19:37;;;;;;;0.65;0.65;;;;;;;24.65;47.26;98572.34;5013451;28;20033;-88
2021/06/10 10:22:03;;;;;;;0.10;0.10;;;;;;;24.96;47.05;98557.47;4997134;28;20092;-88
2021/06/10 10:24:32;;;;;;;0.40;0.40;;;;;;;25.37;46.16;98564.78;5000326;28;20030;-90
2021/06/10 10:26:58;;;;;;;0.32;0.32;;;;;;;25.64;45.35;98518.25;4997928;28;20034;-91
2021/06/10 10:29:23;;;;;;;0.32;0.32;;;;;;;26.43;44.83;98560.66;4997045;28;20048;-89
2021/06/10 10:31:53;;;;;;;0.40;0.35;;;;;;;26.48;42.78;98559.00;4996994;28;20033;-88
2021/06/10 10:34:24;;;;;;;0.20;0.20;;;;;;;26.57;42.80;98550.03;5013215;28;20034;-88
2021/06/10 10:36:51;;;;;;;1.33;1.17;;;;;;;27.33;42.34;98537.34;5012781;28;20401;-87
2021/06/10 10:39:27;;;;;;;0.13;0.13;;;;;;;28.21;41.87;98561.78;4996842;28;20486;-87
2021/06/10 10:42:01;;;;;;;0.10;0.10;;;;;;;28.54;41.92;98533.69;4997071;28;20053;-87
2021/06/10 10:44:30;;;;;;;0.15;0.15;;;;;;;28.34;40.61;98496.31;4996772;28;20026;-86
2021/06/10 10:47:05;;;;;;;0.10;0.10;;;;;;;28.80;38.44;98544.03;4996602;28;20026;-85
2021/06/10 10:49:40;;;;;;;0.20;0.20;;;;;;;28.51;38.22;98518.53;4996624;28;20029;-85
2021/06/10 10:52:18;;;;;;;0.73;0.30;;;;;;;29.32;39.03;98516.91;4996971;28;20061;-89
2021/06/10 10:54:44;;;;;;;;;;;;;;;29.20;38.66;98547.84;4997157;28;20507;-91
2021/06/10 10:57:30;;;;;;;0.30;0.30;;;;;;;29.28;39.02;98542.16;4997129;28;19968;-92
2021/06/10 10:59:56;;;;;;;0.25;0.25;;;;;;;28.47;46.66;98517.38;4995532;28;20029;-91
2021/06/10 11:02:23;;;;;;;0.17;0.17;;;;;;;27.88;46.21;98534.34;4995680;28;20026;-90
2021/06/10 11:04:51;;;;;;;0.20;0.20;;;;;;;27.38;46.95;98527.94;4995686;28;20124;-91
2021/06/10 11:07:46;;;;;;;;;;;;;;;27.00;47.00;98515.53;5012129;28;20033;-91
2021/06/10 11:10:34;;;;;;;0.10;0.10;;;;;;;26.59;47.07;98471.66;4966837;28;19916;-92
2021/06/10 11:13:00;;;;;;;0.43;0.40;;;;;;;26.61;48.24;98490.94;5013089;28;20056;-92
2021/06/10 11:15:26;;;;;;;0.43;0.43;;;;;;;26.56;50.34;98483.34;4997095;28;20053;-91
2021/06/10 11:17:55;;;;;;;0.50;0.50;;;;;;;26.56;48.95;98446.50;4997022;28;20128;-90
2021/06/10 11:20:40;;;;;;;0.50;0.50;;;;;;;26.63;48.79;98457.16;4997164;28;20527;-92
2021/06/10 11:23:25;;;;;;;0.40;0.30;;;;;;;26.89;49.41;98440.00;5013313;28;20084;-92
2021/06/10 11:25:52;;;;;;;0.35;0.35;;;;;;;27.23;48.09;98488.13;4997528;28;20034;-91
2021/06/10 11:28:38;;;;;;;0.88;0.60;;;;;;;27.02;49.32;98482.47;5013264;28;20036;-91
2021/06/10 11:31:14;;;;;;;1.48;0.70;;;;;;;26.39;49.84;98438.41;4996779;28;20504;-93
2021/06/10 11:33:40;;;;;;;0.20;0.20;;;;;;;26.28;49.64;98439.41;4996942;28;20037;-91
2021/06/10 11:36:11;;;;;;;1.38;0.35;;;;;;;26.52;50.21;98486.53;4997225;28;20030;-91
2021/06/10 11:38:44;;;;;;;0.20;0.20;;;;;;;26.31;49.87;98463.06;4997090;28;20092;-92
2021/06/10 11:41:14;;;;;;;1.05;0.95;;;;;;;26.21;48.91;98464.81;5013067;28;20030;-92
2021/06/10 11:43:42;;;;;;;0.80;0.45;;;;;;;26.22;49.80;98396.28;4997409;28;20497;-92
2021/06/10 11:46:13;;;;;;;1.35;0.70;;;;;;;26.09;49.55;98382.19;4996902;28;20026;-89
2021/06/10 11:48:51;;;;;;;0.60;0.60;;;;;;;26.35;49.79;98423.81;4997351;28;20504;-91
2021/06/10 11:51:31;;;;;;;0.30;0.30;;;;;;;25.93;47.85;98347.28;5013578;28;20022;-91
2021/06/10 11:54:05;;;;;;;0.20;0.20;;;;;;;26.84;46.20;98440.88;4997277;28;20034;-91
2021/06/10 11:56:31;;;;;;;0.10;0.10;;;;;;;26.86;44.70;98390.06;5013496;28;20021;-89
2021/06/10 11:59:02;;;;;;;0.38;0.38;;;;;;;27.48;44.62;98392.75;4996189;28;20052;-91
2021/06/10 12:01:28;;;;;;;0.90;0.30;;;;;;;27.24;42.80;98347.03;4996801;28;20045;-91
2021/06/10 12:03:54;;;;;;;0.17;0.17;;;;;;;27.73;42.39;98376.00;4996943;28;20030;-90
2021/06/10 12:06:19;;;;;;;0.40;0.40;;;;;;;27.69;43.03;98401.19;4995610;28;20025;-90
2021/06/10 12:08:48;;;;;;;0.40;0.17;;;;;;;27.95;44.47;98417.19;5013981;28;20057;-90
2021/06/10 12:11:16;;;;;;;0.10;0.10;;;;;;;27.80;41.10;98383.03;4996165;28;20065;-90
2021/06/10 12:13:47;;;;;;;0.43;0.40;;;;;;;27.88;40.97;98363.97;5013613;28;20034;-92
2021/06/10 12:16:19;;;;;;;1.45;0.10;;;;;;;28.12;43.51;98408.91;5014244;28;20034;-90
2021/06/10 12:18:51;;;;;;;0.43;0.43;;;;;;;27.74;41.80;98373.94;4997102;28;20061;-91
2021/06/10 12:21:19;;;;;;;0.55;0.28;;;;;;;27.89;43.77;98376.84;4996660;28;20030;-92
2021/06/10 12:23:45;;;;;;;;;;;;;;;27.82;43.30;98403.88;4997225;28;20053;-92
2021/06/10 12:26:19;;;;;;;0.45;0.45;;;;;;;27.64;42.23;98412.69;4997026;28;19910;-91
2021/06/10 12:28:48;;;;;;;0.20;0.20;;;;;;;27.12;43.66;98321.84;4997473;28;20034;-92
2021/06/10 12:31:27;;;;;;;0.10;0.10;;;;;;;27.37;44.27;98361.06;4996890;28;20033;-92
2021/06/10 12:34:00;;;;;;;0.40;0.40;;;;;;;27.36;46.11;98390.78;4999023;28;20401;-91
2021/06/10 12:36:31;;;;;;;0.88;0.85;;;;;;;27.01;42.61;98321.38;5016814;28;20095;-91
2021/06/10 12:39:07;;;;;;;0.43;0.43;;;;;;;27.22;44.53;98346.81;5000548;28;20366;-92
2021/06/10 12:41:35;;;;;;;0.40;0.32;;;;;;;26.88;45.51;98329.97;5000898;28;20026;-91
2021/06/10 12:44:11;;;;;;;1.63;1.17;;;;;;;26.87;49.02;98336.97;4999920;28;20051;-92
2021/06/10 12:46:47;;;;;;;0.10;0.10;;;;;;;27.16;46.36;98378.19;5018353;28;20033;-92
2021/06/10 12:49:13;;;;;;;0.10;0.10;;;;;;;27.27;44.63;98366.53;5016515;28;20057;-91
2021/06/10 12:51:44;;;;;;;0.25;0.20;;;;;;;26.73;45.06;98320.03;4999216;28;20172;-91
2021/06/10 12:54:12;;;;;;;0.52;0.52;;;;;;;26.84;44.15;98318.97;5015933;28;20041;-92
2021/06/10 12:56:42;;;;;;;0.65;0.60;;;;;;;26.99;42.49;98366.56;5015997;28;20041;-91
2021/06/10 12:59:09;;;;;;;0.68;0.52;;;;;;;26.91;38.98;98338.13;5000271;28;20103;-91
2021/06/10 13:01:35;;;;;;;0.40;0.32;;;;;;;27.29;40.31;98363.13;4999062;28;20025;-91
2021/06/10 13:04:03;;;;;;;0.28;0.28;;;;;;;26.69;41.07;98327.41;4999518;28;20041;-91
2021/06/10 13:06:30;;;;;;;0.32;0.32;;;;;;;26.94;41.12;98344.78;5015085;28;20105;-91
2021/06/10 13:08:57;;;;;;;0.50;0.50;;;;;;;27.16;40.98;98358.34;4998622;28;20566;-91
2021/06/10 13:11:22;;;;;;;0.27;0.27;;;;;;;26.84;38.40;98312.53;4999190;28;20465;-91
2021/06/10 13:13:50;;;;;;;0.20;0.20;;;;;;;26.90;40.77;98335.84;4998791;28;20022;-91
2021/06/10 13:16:16;;;;;;;0.40;0.40;;;;;;;27.03;40.95;98355.59;5015063;28;20113;-91
2021/06/10 13:18:44;;;;;;;0.40;0.40;;;;;;;26.43;40.04;98327.56;4999500;28;20041;-92
2021/06/10 13:21:12;;;;;;;0.82;0.70;;;;;;;26.35;42.88;98392.66;5014743;28;20037;-91